Time;durP1;ratioP1;P1;durP2;ratioP2;P2;SDS_P1;SDS_P2;PMS_P1;PMS_P2;Temp;Humidity;BMP_temperature;BMP_pressure;BME280_temperature;BME280_humidity;BME280_pressure;Samples;Min_cycle;Max_cycle;Signal;HPM_P1;HPM_P2
2021/01/14 00:00:46;;;;;;;3.10;2.90;;;3.30;99.90;;;;;;5038415;28;20233;-79
2021/01/14 00:03:12;;;;;;;2.80;2.60;;;3.30;99.90;;;;;;5038955;28;20193;-79
2021/01/14 00:05:41;;;;;;;2.97;2.77;;;3.40;99.90;;;;;;5038700;28;20179;-79
2021/01/14 00:08:08;;;;;;;2.37;2.27;;;3.40;99.90;;;;;;5038968;28;20722;-79
2021/01/14 00:10:36;;;;;;;3.00;2.80;;;3.40;99.90;;;;;;5036648;28;20253;-79
2021/01/14 00:13:03;;;;;;;2.40;2.30;;;3.40;99.90;;;;;;5038361;28;20198;-79
2021/01/14 00:15:28;;;;;;;2.90;2.70;;;3.50;99.90;;;;;;5036756;28;20708;-79
2021/01/14 00:17:54;;;;;;;2.80;2.60;;;3.50;99.90;;;;;;5037952;28;20534;-79
2021/01/14 00:20:20;;;;;;;2.73;2.57;;;3.50;99.90;;;;;;5036149;28;20194;-79
2021/01/14 00:22:46;;;;;;;2.93;2.63;;;3.50;99.90;;;;;;5029055;28;20175;-79
2021/01/14 00:25:15;;;;;;;2.40;2.20;;;3.60;99.90;;;;;;5036718;28;20541;-79
2021/01/14 00:27:41;;;;;;;2.80;2.60;;;3.60;99.90;;;;;;5036028;28;20208;-79
2021/01/14 00:30:16;;;;;;;2.60;2.40;;;3.60;99.90;;;;;;5035991;28;20598;-79
2021/01/14 00:32:42;;;;;;;2.40;2.30;;;3.60;99.90;;;;;;5030685;28;20288;-79
2021/01/14 00:35:09;;;;;;;2.20;2.10;;;3.70;99.90;;;;;;5036106;28;20792;-79
2021/01/14 00:37:50;;;;;;;2.30;2.20;;;3.70;99.90;;;;;;5036374;28;20244;-78
2021/01/14 00:40:18;;;;;;;2.13;2.03;;;3.70;99.90;;;;;;5036654;28;20194;-79
2021/01/14 00:42:44;;;;;;;2.10;2.00;;;3.80;99.90;;;;;;5034997;28;20181;-79
2021/01/14 00:45:11;;;;;;;2.07;1.97;;;3.70;99.90;;;;;;5035674;28;20553;-79
2021/01/14 00:47:37;;;;;;;2.20;2.10;;;3.80;99.90;;;;;;5036324;28;20175;-79
2021/01/14 00:50:05;;;;;;;2.17;2.07;;;3.80;99.90;;;;;;5036477;28;20620;-80
2021/01/14 00:52:31;;;;;;;2.40;2.20;;;3.80;99.90;;;;;;5033126;28;20206;-79
2021/01/14 00:54:58;;;;;;;2.10;2.00;;;3.80;99.90;;;;;;5035938;28;20187;-79
2021/01/14 00:57:23;;;;;;;2.00;1.90;;;3.90;99.90;;;;;;5036134;28;20166;-79
2021/01/14 00:59:49;;;;;;;2.07;1.97;;;3.90;99.90;;;;;;5036282;28;20206;-79
2021/01/14 01:02:15;;;;;;;1.90;1.80;;;4.00;99.90;;;;;;5036117;28;20182;-79
2021/01/14 01:04:41;;;;;;;1.73;1.63;;;4.00;99.90;;;;;;5036008;28;20174;-79
2021/01/14 01:07:07;;;;;;;1.73;1.63;;;4.00;99.90;;;;;;5036172;28;20180;-79
2021/01/14 01:09:33;;;;;;;1.60;1.50;;;4.10;99.90;;;;;;5035872;28;20230;-79
2021/01/14 01:11:59;;;;;;;1.73;1.63;;;4.10;99.90;;;;;;5035908;28;20630;-79
2021/01/14 01:14:25;;;;;;;1.73;1.63;;;4.10;99.90;;;;;;5036053;28;20206;-79
2021/01/14 01:16:56;;;;;;;1.77;1.67;;;4.20;99.90;;;;;;5035745;28;20182;-79
2021/01/14 01:19:22;;;;;;;1.63;1.53;;;4.20;99.90;;;;;;5035513;28;20189;-79
2021/01/14 01:21:48;;;;;;;1.57;1.47;;;4.20;99.90;;;;;;5032307;28;20202;-79
2021/01/14 01:24:14;;;;;;;1.33;1.23;;;4.20;99.90;;;;;;5030414;28;20178;-79
2021/01/14 01:26:40;;;;;;;1.67;1.57;;;4.20;99.90;;;;;;5035263;28;20206;-79
2021/01/14 01:29:09;;;;;;;1.33;1.23;;;4.30;99.90;;;;;;5035748;28;20189;-79
2021/01/14 01:31:37;;;;;;;1.60;1.50;;;4.30;99.90;;;;;;5035334;28;20217;-79
2021/01/14 01:34:03;;;;;;;1.40;1.30;;;4.30;99.90;;;;;;5033677;28;20199;-79
2021/01/14 01:36:29;;;;;;;1.90;1.60;;;4.40;99.90;;;;;;5035318;28;20245;-79
2021/01/14 01:38:54;;;;;;;1.93;1.20;;;4.40;99.90;;;;;;5035398;28;20672;-79
2021/01/14 01:41:20;;;;;;;1.07;1.07;;;4.40;99.90;;;;;;5033754;28;20198;-79
2021/01/14 01:43:46;;;;;;;1.20;1.00;;;4.50;99.90;;;;;;5034929;28;20178;-79
2021/01/14 01:46:23;;;;;;;1.23;1.20;;;4.50;99.90;;;;;;5033857;28;20230;-79
2021/01/14 01:48:49;;;;;;;1.03;1.00;;;4.50;99.90;;;;;;5035409;28;20216;-79
2021/01/14 01:51:15;;;;;;;0.73;0.73;;;4.60;99.90;;;;;;5035106;28;20574;-79
2021/01/14 01:53:41;;;;;;;0.80;0.80;;;4.60;99.90;;;;;;5035280;28;20203;-79
2021/01/14 01:56:08;;;;;;;0.90;0.90;;;4.70;99.90;;;;;;5033603;28;20183;-79
2021/01/14 01:58:38;;;;;;;0.70;0.70;;;4.70;99.90;;;;;;5035251;28;20238;-79
2021/01/14 02:01:04;;;;;;;0.73;0.73;;;4.60;99.90;;;;;;5034933;28;20194;-79
2021/01/14 02:03:32;;;;;;;1.13;0.70;;;4.70;99.90;;;;;;5034828;28;20180;-79
2021/01/14 02:05:59;;;;;;;0.67;0.67;;;4.70;99.90;;;;;;5035023;28;20548;-79
2021/01/14 02:08:49;;;;;;;0.63;0.63;;;4.80;99.90;;;;;;5035441;28;20183;-79
2021/01/14 02:11:22;;;;;;;0.53;0.53;;;4.80;99.90;;;;;;5035410;28;20685;-79
2021/01/14 02:14:00;;;;;;;0.40;0.40;;;4.90;99.90;;;;;;5035173;28;20200;-79
2021/01/14 02:16:26;;;;;;;0.40;0.40;;;4.90;99.90;;;;;;5035383;28;20174;-79
2021/01/14 02:18:57;;;;;;;0.53;0.53;;;5.00;99.90;;;;;;5034935;28;20178;-79
2021/01/14 02:21:25;;;;;;;0.60;0.60;;;4.90;99.90;;;;;;5033170;28;20256;-79
2021/01/14 02:24:20;;;;;;;0.67;0.50;;;4.90;99.90;;;;;;5027246;28;20587;-79
2021/01/14 02:26:48;;;;;;;0.50;0.50;;;4.90;99.90;;;;;;5035472;28;20177;-79
2021/01/14 02:29:15;;;;;;;0.70;0.60;;;4.90;99.90;;;;;;5034751;28;20198;-79
2021/01/14 02:31:40;;;;;;;0.60;0.60;;;4.90;99.90;;;;;;5033699;28;20216;-79
2021/01/14 02:34:06;;;;;;;0.70;0.70;;;4.90;99.90;;;;;;5035308;28;20214;-78
2021/01/14 02:36:32;;;;;;;0.70;0.60;;;4.90;99.90;;;;;;5033118;28;20206;-80
2021/01/14 02:38:57;;;;;;;0.43;0.43;;;4.90;99.90;;;;;;5036700;28;20203;-79
2021/01/14 02:41:23;;;;;;;0.20;0.20;;;4.90;99.90;;;;;;5050732;28;20698;-79
2021/01/14 02:43:49;;;;;;;0.30;0.30;;;4.90;99.90;;;;;;5041371;28;20265;-79
2021/01/14 02:46:16;;;;;;;0.30;0.30;;;4.90;99.90;;;;;;5033864;28;20178;-80
2021/01/14 02:48:53;;;;;;;0.30;0.30;;;4.90;99.90;;;;;;5035455;28;20181;-80
2021/01/14 02:51:46;;;;;;;0.50;0.40;;;4.80;99.90;;;;;;5038444;28;20224;-80
2021/01/14 02:54:13;;;;;;;0.43;0.43;;;4.80;99.90;;;;;;5036591;28;20604;-79
2021/01/14 02:56:40;;;;;;;1.20;0.40;;;4.70;99.90;;;;;;5041009;28;20178;-80
2021/01/14 02:59:06;;;;;;;0.40;0.40;;;4.70;99.90;;;;;;5040375;28;20255;-80
2021/01/14 03:01:33;;;;;;;0.87;0.40;;;4.60;99.90;;;;;;5039982;28;20284;-79
2021/01/14 03:03:58;;;;;;;0.63;0.57;;;4.60;99.90;;;;;;5040886;28;20175;-79
2021/01/14 03:06:25;;;;;;;0.60;0.60;;;4.60;99.90;;;;;;5040314;28;20188;-79
2021/01/14 03:08:51;;;;;;;0.77;0.70;;;4.60;99.90;;;;;;5040827;28;20176;-79
2021/01/14 03:11:24;;;;;;;0.43;0.43;;;4.60;99.90;;;;;;5040201;28;20196;-79
2021/01/14 03:13:50;;;;;;;0.70;0.70;;;4.50;99.90;;;;;;5040459;28;20690;-79
2021/01/14 03:16:15;;;;;;;0.73;0.73;;;4.50;99.90;;;;;;5039806;28;20177;-79
2021/01/14 03:18:43;;;;;;;0.57;0.57;;;4.50;99.90;;;;;;5039726;28;20237;-79
2021/01/14 03:21:09;;;;;;;0.40;0.40;;;4.50;99.90;;;;;;5039669;28;20223;-80
2021/01/14 03:23:34;;;;;;;0.50;0.50;;;4.40;99.90;;;;;;5031249;28;20174;-79
2021/01/14 03:26:00;;;;;;;0.40;0.40;;;4.40;99.90;;;;;;5040211;28;20257;-79
2021/01/14 03:28:26;;;;;;;0.60;0.60;;;4.30;99.90;;;;;;5040011;28;20204;-80
2021/01/14 03:30:53;;;;;;;0.80;0.50;;;4.30;99.90;;;;;;5039777;28;20337;-80
2021/01/14 03:33:19;;;;;;;0.80;0.80;;;4.20;99.90;;;;;;5040319;28;20246;-79
2021/01/14 03:35:45;;;;;;;0.60;0.60;;;4.10;99.90;;;;;;5039937;28;20195;-79
2021/01/14 03:38:11;;;;;;;0.80;0.73;;;4.10;99.90;;;;;;5039885;28;20179;-79
2021/01/14 03:40:36;;;;;;;1.40;0.93;;;4.10;99.90;;;;;;5040173;28;20216;-79
2021/01/14 03:43:02;;;;;;;1.07;0.83;;;4.00;99.90;;;;;;5040084;28;20224;-79
2021/01/14 03:45:28;;;;;;;1.83;0.60;;;4.00;99.90;;;;;;5039747;28;20550;-79
2021/01/14 03:47:53;;;;;;;1.10;0.70;;;4.00;99.90;;;;;;5032963;28;20164;-79
2021/01/14 03:50:19;;;;;;;0.60;0.60;;;4.00;99.90;;;;;;5034500;28;20215;-79
2021/01/14 03:52:45;;;;;;;1.60;0.40;;;3.90;99.90;;;;;;5037867;28;20541;-79
2021/01/14 03:55:11;;;;;;;0.40;0.30;;;3.90;99.90;;;;;;5040196;28;20178;-79
2021/01/14 03:57:37;;;;;;;0.57;0.30;;;3.80;99.90;;;;;;5040152;28;20175;-79
2021/01/14 04:00:07;;;;;;;0.37;0.10;;;3.80;99.90;;;;;;5039528;28;20218;-80
2021/01/14 04:02:33;;;;;;;0.30;0.20;;;3.70;99.90;;;;;;5037864;28;20202;-80
2021/01/14 04:04:59;;;;;;;0.20;0.20;;;3.70;99.90;;;;;;5037827;28;20198;-80
2021/01/14 04:07:25;;;;;;;0.20;0.20;;;3.60;99.90;;;;;;5039396;28;20198;-80
2021/01/14 04:09:50;;;;;;;1.03;0.10;;;3.60;99.90;;;;;;5039258;28;20197;-80
2021/01/14 04:12:16;;;;;;;0.43;0.10;;;3.50;99.90;;;;;;5039513;28;20168;-79
2021/01/14 04:14:50;;;;;;;0.57;0.27;;;3.40;99.90;;;;;;5038276;28;20180;-79
2021/01/14 04:17:16;;;;;;;0.23;0.20;;;3.40;99.90;;;;;;5039072;28;20664;-79
2021/01/14 04:19:42;;;;;;;0.17;0.10;;;3.30;99.90;;;;;;5039306;28;20183;-79
2021/01/14 04:22:07;;;;;;;3.60;0.20;;;3.30;99.90;;;;;;5032704;28;20182;-79
2021/01/14 04:24:36;;;;;;;0.23;0.10;;;3.30;99.90;;;;;;5037048;28;20175;-79
2021/01/14 04:27:05;;;;;;;1.73;0.20;;;3.20;99.90;;;;;;5039512;28;20202;-78
2021/01/14 04:29:31;;;;;;;0.30;0.20;;;3.20;99.90;;;;;;5039642;28;20174;-78
2021/01/14 04:31:57;;;;;;;1.17;0.30;;;3.20;99.90;;;;;;5039711;28;20188;-79
2021/01/14 04:34:23;;;;;;;0.10;0.10;;;3.20;99.90;;;;;;5039488;28;20244;-79
2021/01/14 04:37:00;;;;;;;0.30;0.20;;;3.10;99.90;;;;;;5039010;28;20182;-79
2021/01/14 04:39:27;;;;;;;0.40;0.20;;;3.10;99.90;;;;;;5039108;28;20193;-79
2021/01/14 04:41:58;;;;;;;0.20;0.20;;;3.20;99.90;;;;;;5035059;28;20250;-79
2021/01/14 04:44:27;;;;;;;0.10;0.10;;;3.20;99.90;;;;;;5039109;28;20185;-79
2021/01/14 04:47:14;;;;;;;0.20;0.20;;;3.20;99.90;;;;;;5038472;28;20186;-80
2021/01/14 04:49:41;;;;;;;0.17;0.13;;;3.20;99.90;;;;;;5038807;28;20178;-79
2021/01/14 04:52:15;;;;;;;0.10;0.10;;;3.10;99.90;;;;;;5037188;28;20178;-79
2021/01/14 04:54:42;;;;;;;0.10;0.10;;;3.10;99.90;;;;;;5037325;28;20190;-80
2021/01/14 04:57:20;;;;;;;0.37;0.20;;;3.10;99.90;;;;;;5036886;28;20174;-80
2021/01/14 04:59:53;;;;;;;0.20;0.20;;;3.10;99.90;;;;;;5038360;28;20181;-79
2021/01/14 05:02:25;;;;;;;0.20;0.20;;;3.00;99.90;;;;;;5025414;28;20186;-79
2021/01/14 05:04:52;;;;;;;0.77;0.20;;;3.10;99.90;;;;;;5023700;28;20176;-79
2021/01/14 05:07:31;;;;;;;2.07;1.70;;;3.10;99.90;;;;;;5031530;28;20201;-79
2021/01/14 05:10:05;;;;;;;2.20;1.30;;;3.00;99.90;;;;;;5036467;28;20628;-79
2021/01/14 05:12:35;;;;;;;2.53;1.30;;;3.00;99.90;;;;;;5037464;28;20220;-79
2021/01/14 05:15:01;;;;;;;1.10;1.00;;;3.00;99.90;;;;;;5037485;28;20186;-79
2021/01/14 05:17:27;;;;;;;1.30;1.10;;;2.90;99.90;;;;;;5038002;28;20178;-79
2021/01/14 05:19:55;;;;;;;0.70;0.63;;;3.00;99.90;;;;;;5038473;28;20194;-79
2021/01/14 05:22:24;;;;;;;1.90;1.40;;;2.90;99.90;;;;;;5029604;28;20175;-78
2021/01/14 05:25:04;;;;;;;4.23;1.87;;;2.90;99.90;;;;;;5023051;28;20201;-79
2021/01/14 05:27:29;;;;;;;1.17;0.97;;;2.90;99.90;;;;;;5038026;28;20648;-79
2021/01/14 05:30:22;;;;;;;0.70;0.70;;;2.90;99.90;;;;;;5037558;28;20214;-79
2021/01/14 05:32:48;;;;;;;1.00;1.00;;;2.90;99.90;;;;;;5053175;22;20319;-76
2021/01/14 05:35:26;;;;;;;0.90;0.80;;;2.90;99.90;;;;;;5033918;28;20163;-76
2021/01/14 05:37:52;;;;;;;0.80;0.80;;;2.90;99.90;;;;;;5032424;28;20707;-76
2021/01/14 05:40:24;;;;;;;1.43;1.33;;;2.90;99.90;;;;;;5030814;28;20199;-76
2021/01/14 05:43:04;;;;;;;2.20;1.70;;;2.90;99.90;;;;;;5033401;28;20202;-76
2021/01/14 05:45:34;;;;;;;0.50;0.47;;;2.90;99.90;;;;;;5033676;28;20174;-74
2021/01/14 05:48:07;;;;;;;1.43;0.50;;;2.80;99.90;;;;;;5033780;28;20569;-76
2021/01/14 05:50:44;;;;;;;1.83;0.50;;;2.80;99.90;;;;;;5033471;28;20195;-76
2021/01/14 05:53:18;;;;;;;0.40;0.40;;;2.80;99.90;;;;;;5033349;28;20210;-76
2021/01/14 05:55:46;;;;;;;1.27;1.00;;;2.80;99.90;;;;;;5033120;28;20195;-76
2021/01/14 05:58:19;;;;;;;1.47;1.03;;;2.80;99.90;;;;;;5033433;28;20183;-76
2021/01/14 06:00:47;;;;;;;1.20;1.10;;;2.80;99.90;;;;;;5033160;28;20170;-75
2021/01/14 06:03:30;;;;;;;1.97;1.40;;;2.70;99.90;;;;;;5033054;28;20225;-75
2021/01/14 06:05:57;;;;;;;1.87;1.70;;;2.70;99.90;;;;;;5032831;28;20179;-76
2021/01/14 06:08:27;;;;;;;0.80;0.80;;;2.70;99.90;;;;;;5033153;28;20170;-76
2021/01/14 06:10:54;;;;;;;0.40;0.40;;;2.70;99.90;;;;;;5033068;28;20168;-76
2021/01/14 06:13:38;;;;;;;0.33;0.33;;;2.70;99.90;;;;;;5035893;28;20259;-76
2021/01/14 06:16:05;;;;;;;2.17;1.30;;;2.70;99.90;;;;;;5037409;28;20171;-76
2021/01/14 06:18:31;;;;;;;0.87;0.70;;;2.70;99.90;;;;;;5035969;28;20172;-76
2021/01/14 06:20:56;;;;;;;0.77;0.47;;;2.70;99.90;;;;;;5036987;28;20247;-75
2021/01/14 06:23:23;;;;;;;1.20;1.07;;;2.70;99.90;;;;;;5028613;28;20182;-75
2021/01/14 06:25:51;;;;;;;1.77;1.10;;;2.70;99.90;;;;;;5036960;28;20564;-75
2021/01/14 06:28:21;;;;;;;3.07;1.40;;;2.70;99.90;;;;;;5022480;28;20174;-75
2021/01/14 06:31:01;;;;;;;2.90;1.40;;;2.70;99.90;;;;;;5036785;28;20277;-76
2021/01/14 06:33:29;;;;;;;1.23;0.90;;;2.70;99.90;;;;;;5036757;28;20193;-76
2021/01/14 06:36:11;;;;;;;1.33;0.57;;;2.70;99.90;;;;;;5036673;28;20169;-76
2021/01/14 06:38:47;;;;;;;0.60;0.60;;;2.60;99.90;;;;;;5036547;28;20657;-76
2021/01/14 06:41:21;;;;;;;1.20;0.70;;;2.60;99.90;;;;;;5036875;28;20643;-76
2021/01/14 06:43:49;;;;;;;1.03;0.33;;;2.50;99.90;;;;;;5036829;28;20245;-76
2021/01/14 06:46:19;;;;;;;0.57;0.50;;;2.50;99.90;;;;;;5029254;28;20659;-76
2021/01/14 06:49:11;;;;;;;0.93;0.67;;;2.50;99.90;;;;;;5033406;28;20175;-76
2021/01/14 06:52:07;;;;;;;0.43;0.43;;;2.40;99.90;;;;;;5028378;28;20207;-76
2021/01/14 06:54:38;;;;;;;2.83;0.70;;;2.40;99.90;;;;;;5036673;28;20197;-76
2021/01/14 06:57:15;;;;;;;1.60;1.20;;;2.40;99.90;;;;;;5035894;28;20198;-76
2021/01/14 06:59:41;;;;;;;0.57;0.57;;;2.30;99.90;;;;;;5035307;28;20175;-76
2021/01/14 07:02:07;;;;;;;2.13;1.93;;;2.30;99.90;;;;;;5033831;28;20225;-76
2021/01/14 07:04:43;;;;;;;2.20;2.00;;;2.30;99.90;;;;;;5035259;28;20206;-76
2021/01/14 07:07:23;;;;;;;3.50;3.20;;;2.20;99.90;;;;;;5035197;28;20289;-75
2021/01/14 07:10:06;;;;;;;4.07;3.77;;;2.20;99.90;;;;;;5034807;28;20170;-76
2021/01/14 07:12:37;;;;;;;2.77;2.57;;;2.20;99.90;;;;;;5029444;28;20220;-75
2021/01/14 07:15:25;;;;;;;1.40;1.30;;;2.10;99.90;;;;;;5020990;28;20187;-75
2021/01/14 07:18:02;;;;;;;0.93;0.80;;;2.10;99.90;;;;;;5021342;28;20257;-76
2021/01/14 07:20:28;;;;;;;1.40;1.30;;;2.10;99.90;;;;;;5023560;28;20169;-76
2021/01/14 07:22:58;;;;;;;1.67;1.03;;;2.10;99.90;;;;;;5020448;28;20198;-76
2021/01/14 07:25:25;;;;;;;2.03;1.83;;;2.10;99.90;;;;;;5034277;28;20181;-75
2021/01/14 07:27:52;;;;;;;3.87;2.90;;;2.00;99.90;;;;;;5034031;28;20278;-76
2021/01/14 07:30:20;;;;;;;3.43;3.13;;;2.00;99.90;;;;;;5024071;28;20199;-75
2021/01/14 07:32:57;;;;;;;4.40;2.57;;;1.90;99.90;;;;;;5030434;28;20719;-75
2021/01/14 07:35:42;;;;;;;3.90;3.50;;;1.90;99.90;;;;;;5030716;28;20221;-76
2021/01/14 07:38:11;;;;;;;4.80;3.70;;;1.80;99.90;;;;;;5031932;28;20269;-76
2021/01/14 07:40:38;;;;;;;3.07;2.80;;;1.80;99.90;;;;;;5034614;28;20171;-75
2021/01/14 07:43:07;;;;;;;3.07;2.77;;;1.80;99.90;;;;;;5035012;28;20268;-75
2021/01/14 07:45:33;;;;;;;3.43;3.00;;;1.80;99.90;;;;;;5034682;28;20170;-75
2021/01/14 07:48:20;;;;;;;2.87;2.67;;;1.70;99.90;;;;;;5033485;28;20174;-76
2021/01/14 07:50:57;;;;;;;4.10;3.70;;;1.80;99.90;;;;;;5034407;28;20649;-76
2021/01/14 07:53:27;;;;;;;4.97;4.50;;;1.70;99.90;;;;;;5035377;28;20190;-76
2021/01/14 07:55:53;;;;;;;5.23;4.40;;;1.70;99.90;;;;;;5035194;28;20182;-75
2021/01/14 07:58:20;;;;;;;6.50;4.77;;;1.70;99.90;;;;;;5033870;28;20232;-74
2021/01/14 08:01:07;;;;;;;6.40;5.27;;;1.70;99.90;;;;;;5034959;28;20658;-75
2021/01/14 08:03:38;;;;;;;5.87;4.97;;;1.60;99.90;;;;;;5035151;28;20178;-75
2021/01/14 08:06:36;;;;;;;5.47;4.83;;;1.60;99.90;;;;;;5018946;28;20179;-75
2021/01/14 08:09:06;;;;;;;5.77;4.80;;;1.60;99.90;;;;;;4996801;28;20194;-76
2021/01/14 08:11:33;;;;;;;6.13;5.63;;;1.70;99.90;;;;;;5028201;28;20219;-76
2021/01/14 08:14:14;;;;;;;12.07;8.77;;;1.70;99.90;;;;;;5029033;28;20668;-75
2021/01/14 08:16:51;;;;;;;6.23;5.60;;;1.70;99.90;;;;;;5033780;28;20522;-75
2021/01/14 08:19:29;;;;;;;3.30;3.00;;;1.70;99.90;;;;;;5034861;28;20245;-76
2021/01/14 08:21:58;;;;;;;3.60;3.10;;;1.80;99.90;;;;;;5030397;28;20205;-75
2021/01/14 08:24:54;;;;;;;11.57;7.13;;;1.80;99.90;;;;;;5031240;28;20183;-75
2021/01/14 08:27:38;;;;;;;9.30;7.10;;;1.70;99.90;;;;;;5034201;28;20580;-75
2021/01/14 08:30:06;;;;;;;6.50;4.70;;;1.70;99.90;;;;;;5034780;28;20541;-75
2021/01/14 08:32:45;;;;;;;7.27;5.20;;;1.60;99.90;;;;;;5034285;28;20579;-74
2021/01/14 08:35:16;;;;;;;5.17;4.70;;;1.60;99.90;;;;;;5034307;28;20546;-74
2021/01/14 08:37:45;;;;;;;9.83;6.33;;;1.50;99.90;;;;;;5034080;28;20170;-74
2021/01/14 08:40:19;;;;;;;8.13;5.90;;;1.50;99.90;;;;;;5034549;28;20175;-74
2021/01/14 08:42:48;;;;;;;7.20;4.87;;;1.50;99.90;;;;;;5034430;28;20186;-74
2021/01/14 08:45:18;;;;;;;9.73;6.00;;;1.40;99.90;;;;;;5034332;28;20641;-75
2021/01/14 08:48:02;;;;;;;6.93;5.43;;;1.40;99.90;;;;;;5031259;28;20197;-74
2021/01/14 08:51:00;;;;;;;14.87;10.43;;;1.40;99.90;;;;;;5034226;28;20224;-75
2021/01/14 08:53:37;;;;;;;7.43;5.50;;;1.40;99.90;;;;;;5034257;28;20277;-74
2021/01/14 08:56:07;;;;;;;5.90;5.30;;;1.50;99.90;;;;;;5034383;28;20169;-75
2021/01/14 08:58:44;;;;;;;5.60;5.10;;;1.40;99.90;;;;;;5034108;28;20696;-75
2021/01/14 09:01:22;;;;;;;6.43;5.17;;;1.40;99.90;;;;;;5032144;28;20228;-74
2021/01/14 09:03:49;;;;;;;12.87;7.13;;;1.40;99.90;;;;;;5033980;28;20175;-75
2021/01/14 09:06:16;;;;;;;6.03;5.43;;;1.40;99.90;;;;;;5034154;28;20532;-73
2021/01/14 09:08:42;;;;;;;8.17;7.37;;;1.40;99.90;;;;;;5033893;28;20301;-73
2021/01/14 09:11:08;;;;;;;8.13;6.13;;;1.40;99.90;;;;;;5033686;28;20713;-73
2021/01/14 09:13:34;;;;;;;7.37;5.73;;;1.40;99.90;;;;;;5032435;28;20194;-74
2021/01/14 09:16:10;;;;;;;8.23;7.43;;;1.40;99.90;;;;;;5033676;28;20170;-74
2021/01/14 09:18:41;;;;;;;51.83;31.23;;;1.40;99.90;;;;;;5033899;28;20189;-73
2021/01/14 09:21:08;;;;;;;15.00;12.20;;;1.30;99.90;;;;;;5033505;28;20216;-73
2021/01/14 09:23:35;;;;;;;10.07;8.47;;;1.30;99.90;;;;;;5024966;28;20206;-72
2021/01/14 09:26:03;;;;;;;6.13;5.53;;;1.30;99.90;;;;;;5033419;28;20230;-75
2021/01/14 09:28:31;;;;;;;6.00;5.50;;;1.40;99.90;;;;;;5033507;28;20201;-75
2021/01/14 09:31:10;;;;;;;10.07;8.83;;;1.40;99.90;;;;;;5033469;28;20174;-74
2021/01/14 09:33:41;;;;;;;14.00;9.77;;;1.40;99.90;;;;;;5024808;28;20290;-75
2021/01/14 09:36:08;;;;;;;37.13;18.67;;;1.40;99.90;;;;;;5022608;28;20172;-75
2021/01/14 09:38:53;;;;;;;14.60;10.93;;;1.40;99.90;;;;;;5027357;28;20193;-75
2021/01/14 09:41:36;;;;;;;7.33;6.47;;;1.40;99.90;;;;;;5033599;28;20244;-75
2021/01/14 09:44:13;;;;;;;21.23;12.10;;;1.40;99.90;;;;;;5029003;28;20254;-75
2021/01/14 09:46:39;;;;;;;34.73;16.83;;;1.40;99.90;;;;;;5014942;28;20178;-74
2021/01/14 09:49:31;;;;;;;10.37;7.40;;;1.40;99.90;;;;;;5026448;28;20637;-74
2021/01/14 09:51:57;;;;;;;10.43;7.27;;;1.40;99.90;;;;;;5030166;28;20293;-75
2021/01/14 09:54:24;;;;;;;10.07;7.70;;;1.40;99.90;;;;;;5033188;28;20278;-73
2021/01/14 09:56:53;;;;;;;9.47;6.67;;;1.50;99.90;;;;;;5030282;28;20166;-74
2021/01/14 09:59:36;;;;;;;7.70;6.60;;;1.50;99.90;;;;;;5033323;28;20166;-74
2021/01/14 10:02:14;;;;;;;13.00;6.60;;;1.50;99.90;;;;;;5033246;28;20234;-74
2021/01/14 10:04:45;;;;;;;11.27;9.67;;;1.50;99.90;;;;;;5021153;28;20171;-74
2021/01/14 10:07:21;;;;;;;9.77;8.07;;;1.60;99.90;;;;;;5033636;28;20257;-75
2021/01/14 10:09:51;;;;;;;8.70;7.80;;;1.70;99.90;;;;;;5037923;28;20202;-73
2021/01/14 10:12:17;;;;;;;6.90;6.30;;;1.70;99.90;;;;;;5038327;28;20197;-73
2021/01/14 10:14:43;;;;;;;20.43;12.90;;;1.70;99.90;;;;;;5034596;28;20272;-75
2021/01/14 10:17:10;;;;;;;20.60;15.87;;;1.70;99.90;;;;;;5034976;28;20166;-74
2021/01/14 10:19:41;;;;;;;12.03;10.57;;;1.60;99.90;;;;;;5034192;28;20201;-75
2021/01/14 10:22:07;;;;;;;11.33;10.13;;;1.60;99.90;;;;;;5026838;28;20201;-75
2021/01/14 10:24:33;;;;;;;9.37;7.93;;;1.60;99.90;;;;;;5023221;28;20176;-74
2021/01/14 10:27:13;;;;;;;24.67;18.03;;;1.60;99.90;;;;;;5015599;28;20229;-74
2021/01/14 10:29:39;;;;;;;6.63;5.90;;;1.60;99.90;;;;;;5030163;28;20559;-75
2021/01/14 10:32:16;;;;;;;6.93;6.33;;;1.60;99.90;;;;;;5029541;28;20697;-75
2021/01/14 10:34:46;;;;;;;13.43;10.03;;;1.60;99.90;;;;;;5022317;28;20212;-74
2021/01/14 10:37:26;;;;;;;8.87;8.07;;;1.50;99.90;;;;;;5015032;28;20217;-76
2021/01/14 10:39:54;;;;;;;7.57;6.87;;;1.50;99.90;;;;;;5013461;28;20250;-76
2021/01/14 10:42:37;;;;;;;5.17;4.67;;;1.50;99.90;;;;;;5012958;28;20191;-76
2021/01/14 10:45:08;;;;;;;8.30;4.97;;;1.50;99.90;;;;;;5015936;28;20171;-75
2021/01/14 10:47:35;;;;;;;3.47;3.17;;;1.50;99.90;;;;;;5014476;28;20168;-75
2021/01/14 10:50:18;;;;;;;2.43;2.23;;;1.50;99.90;;;;;;5017900;28;20168;-75
2021/01/14 10:53:04;;;;;;;8.17;7.40;;;1.40;99.90;;;;;;5024258;28;20248;-75
2021/01/14 10:55:34;;;;;;;3.47;2.60;;;1.40;99.90;;;;;;5031510;28;20235;-75
2021/01/14 10:58:00;;;;;;;7.27;6.37;;;1.40;99.90;;;;;;5032252;28;20175;-74
2021/01/14 11:00:38;;;;;;;9.80;5.63;;;1.40;99.90;;;;;;5022155;28;20174;-74
2021/01/14 11:03:08;;;;;;;2.83;2.63;;;1.40;99.90;;;;;;5036356;28;20191;-75
2021/01/14 11:05:51;;;;;;;14.13;9.93;;;1.40;99.90;;;;;;5036120;28;20517;-75
2021/01/14 11:08:21;;;;;;;4.30;3.90;;;1.40;99.90;;;;;;5035930;28;20178;-75
2021/01/14 11:11:02;;;;;;;19.87;14.30;;;1.30;99.90;;;;;;5036099;28;20182;-75
2021/01/14 11:13:47;;;;;;;5.53;5.03;;;1.30;99.90;;;;;;5036854;28;20194;-74
2021/01/14 11:16:18;;;;;;;6.23;4.17;;;1.30;99.90;;;;;;5036140;28;20205;-75
2021/01/14 11:18:45;;;;;;;78.67;31.10;;;1.30;99.90;;;;;;5035839;28;20539;-74
2021/01/14 11:21:13;;;;;;;7.63;3.60;;;1.20;99.90;;;;;;5035737;28;20186;-74
2021/01/14 11:23:39;;;;;;;19.93;12.90;;;1.30;99.90;;;;;;5027241;28;20171;-76
2021/01/14 11:26:06;;;;;;;3.60;3.30;;;1.20;99.90;;;;;;5035704;28;20170;-75
2021/01/14 11:28:38;;;;;;;3.10;2.90;;;1.20;99.90;;;;;;5035818;28;20181;-75
2021/01/14 11:31:04;;;;;;;8.90;8.00;;;1.10;99.90;;;;;;5033612;28;20194;-75
2021/01/14 11:33:29;;;;;;;4.30;4.00;;;1.10;99.90;;;;;;5060023;23;20226;-77
2021/01/14 11:35:55;;;;;;;4.90;4.50;;;1.10;99.90;;;;;;5038091;28;20171;-78
2021/01/14 11:38:22;;;;;;;7.07;6.47;;;1.10;99.90;;;;;;5038366;28;20532;-77
2021/01/14 11:40:49;;;;;;;7.73;7.03;;;1.00;99.90;;;;;;5037498;28;20174;-78
2021/01/14 11:43:15;;;;;;;7.70;7.00;;;1.00;99.90;;;;;;5038196;28;20672;-78
2021/01/14 11:45:41;;;;;;;5.77;5.27;;;1.00;99.90;;;;;;5023072;28;20190;-78
2021/01/14 11:48:08;;;;;;;4.50;4.20;;;1.00;99.90;;;;;;5030919;28;20189;-78
2021/01/14 11:50:34;;;;;;;4.60;4.17;;;0.90;99.90;;;;;;5017290;28;20180;-79
2021/01/14 11:53:00;;;;;;;5.80;5.33;;;0.90;99.90;;;;;;5024408;28;20218;-80
2021/01/14 11:55:26;;;;;;;8.57;7.87;;;0.90;99.90;;;;;;5027609;28;20182;-80
2021/01/14 11:57:52;;;;;;;8.23;7.40;;;0.80;99.90;;;;;;5030840;28;20228;-79
2021/01/14 12:00:18;;;;;;;13.33;10.53;;;0.80;99.90;;;;;;5022618;28;20712;-77
2021/01/14 12:02:45;;;;;;;3.60;3.30;;;0.80;99.90;;;;;;5027632;28;20201;-80
2021/01/14 12:05:11;;;;;;;6.43;5.73;;;0.80;99.90;;;;;;5026223;28;20175;-79
2021/01/14 12:07:37;;;;;;;3.30;3.00;;;0.80;99.90;;;;;;5025198;28;21637;-77
2021/01/14 12:10:04;;;;;;;1.80;1.57;;;0.80;99.90;;;;;;5018275;28;20676;-79
2021/01/14 12:12:30;;;;;;;1.57;1.40;;;0.80;99.90;;;;;;5018572;28;20222;-78
2021/01/14 12:14:57;;;;;;;1.60;1.40;;;0.80;99.90;;;;;;5020741;28;20666;-79
2021/01/14 12:17:23;;;;;;;0.90;0.90;;;0.70;99.90;;;;;;5026433;28;20178;-80
2021/01/14 12:19:49;;;;;;;7.00;4.80;;;0.70;99.90;;;;;;5041138;28;20174;-80
2021/01/14 12:22:15;;;;;;;11.57;7.07;;;0.60;99.90;;;;;;5033877;28;20191;-79
2021/01/14 12:24:40;;;;;;;4.13;2.27;;;0.60;99.90;;;;;;5026377;28;20638;-80
2021/01/14 12:27:06;;;;;;;1.70;1.57;;;0.60;99.90;;;;;;5022152;28;20175;-79
2021/01/14 12:29:32;;;;;;;1.67;1.57;;;0.50;99.90;;;;;;5023804;28;20699;-79
2021/01/14 12:31:57;;;;;;;1.03;0.80;;;0.50;99.90;;;;;;5033264;28;20234;-80
2021/01/14 12:34:23;;;;;;;1.17;0.77;;;0.50;99.90;;;;;;5029870;28;20195;-79
2021/01/14 12:36:49;;;;;;;0.77;0.77;;;0.50;99.90;;;;;;5037792;28;20186;-79
2021/01/14 12:39:15;;;;;;;0.90;0.80;;;0.40;99.90;;;;;;5019707;28;20245;-80
2021/01/14 12:41:41;;;;;;;0.63;0.63;;;0.40;99.90;;;;;;5027099;28;20553;-79
2021/01/14 12:44:08;;;;;;;0.93;0.77;;;0.40;99.90;;;;;;5042918;28;20178;-80
2021/01/14 12:46:39;;;;;;;1.00;0.83;;;0.40;99.90;;;;;;5039308;28;20269;-79
2021/01/14 12:49:06;;;;;;;0.97;0.73;;;0.30;99.90;;;;;;5029230;28;20194;-80
2021/01/14 12:51:32;;;;;;;1.00;0.90;;;0.30;99.90;;;;;;5025681;28;20249;-79
2021/01/14 12:53:58;;;;;;;1.90;1.20;;;0.30;99.90;;;;;;5024458;28;20210;-80
2021/01/14 12:56:25;;;;;;;13.13;2.83;;;0.30;99.90;;;;;;5023903;28;20179;-80
2021/01/14 12:58:51;;;;;;;1.47;1.37;;;0.30;99.90;;;;;;5023197;28;20171;-79
2021/01/14 13:01:16;;;;;;;2.20;1.40;;;0.30;99.90;;;;;;5021146;28;20179;-79
2021/01/14 13:03:42;;;;;;;1.13;0.93;;;0.40;99.90;;;;;;5021063;28;20686;-79
2021/01/14 13:06:08;;;;;;;0.73;0.73;;;0.30;99.90;;;;;;5014586;28;20179;-79
2021/01/14 13:08:34;;;;;;;0.70;0.60;;;0.30;99.90;;;;;;5004709;28;20179;-79
2021/01/14 13:10:59;;;;;;;1.10;1.00;;;0.30;99.90;;;;;;5033972;28;20181;-79